sensor_id;sensor_type;location;lat;lon;timestamp;pressure;altitude;pressure_sealevel;temperature;humidity
15670;BME280;18524;45.190;5.732;2022-10-16T00:00:39;99215.06;;;16.49;100.00
15670;BME280;18524;45.190;5.732;2022-10-16T00:05:29;99211.31;;;16.68;100.00
15670;BME280;18524;45.190;5.732;2022-10-16T00:10:20;99218.94;;;16.71;100.00
15670;BME280;18524;45.190;5.732;2022-10-16T00:15:11;99215.25;;;16.55;100.00
15670;BME280;18524;45.190;5.732;2022-10-16T00:20:01;99220.47;;;16.39;100.00
15670;BME280;18524;45.190;5.732;2022-10-16T00:24:52;99226.38;;;16.33;100.00
15670;BME280;18524;45.190;5.732;2022-10-16T00:29:43;99230.00;;;16.32;100.00
15670;BME280;18524;45.190;5.732;2022-10-16T00:34:33;99221.06;;;16.25;100.00
15670;BME280;18524;45.190;5.732;2022-10-16T00:39:23;99233.88;;;16.12;100.00
15670;BME280;18524;45.190;5.732;2022-10-16T00:49:33;99220.09;;;16.00;100.00
15670;BME280;18524;45.190;5.732;2022-10-16T00:54:27;99231.22;;;15.86;100.00
15670;BME280;18524;45.190;5.732;2022-10-16T00:59:24;99236.25;;;15.97;100.00
15670;BME280;18524;45.190;5.732;2022-10-16T01:04:15;99238.47;;;16.02;100.00
15670;BME280;18524;45.190;5.732;2022-10-16T01:09:22;99249.59;;;15.87;100.00
15670;BME280;18524;45.190;5.732;2022-10-16T01:14:54;99251.19;;;15.80;100.00
15670;BME280;18524;45.190;5.732;2022-10-16T01:24:46;99247.97;;;15.94;100.00
15670;BME280;18524;45.190;5.732;2022-10-16T01:29:58;99247.78;;;15.88;100.00
15670;BME280;18524;45.190;5.732;2022-10-16T01:35:02;99259.91;;;15.73;100.00
15670;BME280;18524;45.190;5.732;2022-10-16T01:39:58;99250.69;;;15.77;100.00
15670;BME280;18524;45.190;5.732;2022-10-16T01:44:52;99269.66;;;15.72;100.00
15670;BME280;18524;45.190;5.732;2022-10-16T01:49:43;99267.00;;;15.72;100.00
15670;BME280;18524;45.190;5.732;2022-10-16T01:54:37;99261.78;;;15.80;100.00
15670;BME280;18524;45.190;5.732;2022-10-16T01:59:30;99263.50;;;15.89;100.00
15670;BME280;18524;45.190;5.732;2022-10-16T02:04:29;99270.44;;;15.90;100.00
15670;BME280;18524;45.190;5.732;2022-10-16T02:09:21;99264.78;;;15.85;100.00
15670;BME280;18524;45.190;5.732;2022-10-16T02:14:12;99260.84;;;15.89;100.00
15670;BME280;18524;45.190;5.732;2022-10-16T02:19:03;99269.28;;;15.93;100.00
15670;BME280;18524;45.190;5.732;2022-10-16T02:24:08;99269.81;;;15.97;100.00
15670;BME280;18524;45.190;5.732;2022-10-16T02:29:10;99266.34;;;15.96;100.00
15670;BME280;18524;45.190;5.732;2022-10-16T02:34:03;99277.22;;;15.93;100.00
15670;BME280;18524;45.190;5.732;2022-10-16T02:38:55;99270.59;;;15.89;100.00
15670;BME280;18524;45.190;5.732;2022-10-16T02:43:45;99273.25;;;15.89;100.00
15670;BME280;18524;45.190;5.732;2022-10-16T02:48:36;99267.94;;;15.89;100.00
15670;BME280;18524;45.190;5.732;2022-10-16T02:53:26;99277.22;;;15.93;100.00
15670;BME280;18524;45.190;5.732;2022-10-16T02:58:16;99273.41;;;15.87;100.00
15670;BME280;18524;45.190;5.732;2022-10-16T03:03:07;99281.78;;;15.83;100.00
15670;BME280;18524;45.190;5.732;2022-10-16T03:07:57;99282.47;;;15.85;100.00
15670;BME280;18524;45.190;5.732;2022-10-16T03:12:50;99281.28;;;15.79;100.00
15670;BME280;18524;45.190;5.732;2022-10-16T03:17:41;99280.97;;;15.82;100.00
15670;BME280;18524;45.190;5.732;2022-10-16T03:22:31;99285.78;;;15.87;100.00
15670;BME280;18524;45.190;5.732;2022-10-16T03:27:22;99273.50;;;15.60;100.00
15670;BME280;18524;45.190;5.732;2022-10-16T03:32:12;99291.91;;;15.52;100.00
15670;BME280;18524;45.190;5.732;2022-10-16T03:37:03;99276.50;;;15.47;100.00
15670;BME280;18524;45.190;5.732;2022-10-16T03:41:53;99286.41;;;15.45;100.00
15670;BME280;18524;45.190;5.732;2022-10-16T03:46:43;99286.53;;;15.44;100.00
15670;BME280;18524;45.190;5.732;2022-10-16T03:51:34;99288.50;;;15.42;100.00
15670;BME280;18524;45.190;5.732;2022-10-16T03:56:24;99284.22;;;15.41;100.00
15670;BME280;18524;45.190;5.732;2022-10-16T04:01:14;99286.03;;;15.40;100.00
15670;BME280;18524;45.190;5.732;2022-10-16T04:06:05;99290.84;;;15.27;100.00
15670;BME280;18524;45.190;5.732;2022-10-16T04:10:55;99287.88;;;15.12;100.00
15670;BME280;18524;45.190;5.732;2022-10-16T04:15:46;99285.06;;;14.96;100.00
15670;BME280;18524;45.190;5.732;2022-10-16T04:20:36;99285.75;;;14.98;100.00
15670;BME280;18524;45.190;5.732;2022-10-16T04:25:27;99287.56;;;14.97;100.00
15670;BME280;18524;45.190;5.732;2022-10-16T04:30:17;99281.34;;;14.89;100.00
15670;BME280;18524;45.190;5.732;2022-10-16T04:35:08;99282.06;;;14.81;100.00
15670;BME280;18524;45.190;5.732;2022-10-16T04:39:58;99290.03;;;14.72;100.00
15670;BME280;18524;45.190;5.732;2022-10-16T04:44:48;99290.63;;;14.65;100.00
15670;BME280;18524;45.190;5.732;2022-10-16T04:49:39;99300.84;;;14.78;100.00
15670;BME280;18524;45.190;5.732;2022-10-16T04:54:29;99303.69;;;14.67;100.00
15670;BME280;18524;45.190;5.732;2022-10-16T04:59:21;99306.75;;;14.62;100.00
15670;BME280;18524;45.190;5.732;2022-10-16T05:04:12;99300.59;;;14.72;100.00
15670;BME280;18524;45.190;5.732;2022-10-16T05:09:02;99303.25;;;14.72;100.00
15670;BME280;18524;45.190;5.732;2022-10-16T05:13:53;99298.84;;;14.62;100.00
15670;BME280;18524;45.190;5.732;2022-10-16T05:18:43;99302.28;;;14.73;100.00
15670;BME280;18524;45.190;5.732;2022-10-16T05:23:33;99311.75;;;14.65;100.00
15670;BME280;18524;45.190;5.732;2022-10-16T05:28:25;99308.22;;;14.75;100.00
15670;BME280;18524;45.190;5.732;2022-10-16T05:33:16;99308.31;;;14.55;100.00
15670;BME280;18524;45.190;5.732;2022-10-16T05:38:07;99317.88;;;14.66;100.00
15670;BME280;18524;45.190;5.732;2022-10-16T05:42:57;99322.22;;;14.48;100.00
15670;BME280;18524;45.190;5.732;2022-10-16T05:47:47;99323.06;;;14.48;100.00
15670;BME280;18524;45.190;5.732;2022-10-16T05:52:38;99325.53;;;14.59;100.00
15670;BME280;18524;45.190;5.732;2022-10-16T05:57:28;99331.94;;;14.57;100.00
15670;BME280;18524;45.190;5.732;2022-10-16T06:02:18;99342.06;;;14.61;100.00
15670;BME280;18524;45.190;5.732;2022-10-16T06:07:09;99340.81;;;14.56;100.00
15670;BME280;18524;45.190;5.732;2022-10-16T06:11:59;99349.63;;;14.27;100.00
15670;BME280;18524;45.190;5.732;2022-10-16T06:16:49;99363.47;;;14.39;100.00
15670;BME280;18524;45.190;5.732;2022-10-16T06:21:40;99364.03;;;14.33;100.00
15670;BME280;18524;45.190;5.732;2022-10-16T06:26:31;99361.13;;;14.36;100.00
15670;BME280;18524;45.190;5.732;2022-10-16T06:31:22;99367.66;;;14.32;100.00
15670;BME280;18524;45.190;5.732;2022-10-16T06:36:14;99372.34;;;14.38;100.00
15670;BME280;18524;45.190;5.732;2022-10-16T06:41:05;99376.25;;;14.53;100.00
15670;BME280;18524;45.190;5.732;2022-10-16T06:45:56;99378.47;;;14.58;100.00
15670;BME280;18524;45.190;5.732;2022-10-16T06:51:04;99387.31;;;14.66;100.00
15670;BME280;18524;45.190;5.732;2022-10-16T06:55:55;99396.75;;;14.69;100.00
15670;BME280;18524;45.190;5.732;2022-10-16T07:00:46;99402.16;;;14.87;100.00
15670;BME280;18524;45.190;5.732;2022-10-16T07:05:40;99401.31;;;15.14;100.00
15670;BME280;18524;45.190;5.732;2022-10-16T07:10:32;99410.59;;;15.27;100.00
15670;BME280;18524;45.190;5.732;2022-10-16T07:15:22;99408.31;;;15.60;100.00
15670;BME280;18524;45.190;5.732;2022-10-16T07:20:13;99417.50;;;15.83;100.00
15670;BME280;18524;45.190;5.732;2022-10-16T07:25:03;99418.50;;;16.18;100.00
15670;BME280;18524;45.190;5.732;2022-10-16T07:29:54;99424.47;;;16.38;99.74
15670;BME280;18524;45.190;5.732;2022-10-16T07:34:44;99431.16;;;16.32;98.52
15670;BME280;18524;45.190;5.732;2022-10-16T07:39:35;99433.59;;;16.43;97.55
15670;BME280;18524;45.190;5.732;2022-10-16T07:44:26;99430.31;;;16.93;93.93
15670;BME280;18524;45.190;5.732;2022-10-16T07:49:16;99437.41;;;17.18;92.81
15670;BME280;18524;45.190;5.732;2022-10-16T07:54:08;99444.84;;;17.49;91.19
15670;BME280;18524;45.190;5.732;2022-10-16T07:58:59;99436.81;;;17.83;88.46
15670;BME280;18524;45.190;5.732;2022-10-16T08:03:50;99440.38;;;18.16;83.40
15670;BME280;18524;45.190;5.732;2022-10-16T08:08:41;99443.50;;;18.11;82.08
15670;BME280;18524;45.190;5.732;2022-10-16T08:13:32;99449.34;;;18.48;77.60
15670;BME280;18524;45.190;5.732;2022-10-16T08:18:23;99437.91;;;18.23;78.84
15670;BME280;18524;45.190;5.732;2022-10-16T08:23:13;99438.34;;;18.91;77.59
15670;BME280;18524;45.190;5.732;2022-10-16T08:28:04;99428.63;;;19.23;75.83
15670;BME280;18524;45.190;5.732;2022-10-16T08:32:56;99435.44;;;19.33;74.21
15670;BME280;18524;45.190;5.732;2022-10-16T08:37:48;99434.56;;;19.41;74.56
15670;BME280;18524;45.190;5.732;2022-10-16T08:47:42;99424.47;;;19.67;73.69
15670;BME280;18524;45.190;5.732;2022-10-16T08:52:39;99429.13;;;19.96;71.34
15670;BME280;18524;45.190;5.732;2022-10-16T08:57:30;99435.19;;;20.13;70.79
15670;BME280;18524;45.190;5.732;2022-10-16T09:02:43;99437.09;;;20.65;69.22
15670;BME280;18524;45.190;5.732;2022-10-16T09:13:02;99427.47;;;21.08;67.72
15670;BME280;18524;45.190;5.732;2022-10-16T09:18:17;99439.66;;;21.40;65.50
15670;BME280;18524;45.190;5.732;2022-10-16T09:23:17;99440.94;;;21.59;65.99
15670;BME280;18524;45.190;5.732;2022-10-16T09:28:08;99445.59;;;21.72;65.12
15670;BME280;18524;45.190;5.732;2022-10-16T09:33:00;99448.84;;;22.03;65.35
15670;BME280;18524;45.190;5.732;2022-10-16T09:37:54;99438.28;;;22.38;64.97
15670;BME280;18524;45.190;5.732;2022-10-16T09:42:44;99445.38;;;22.73;63.11
15670;BME280;18524;45.190;5.732;2022-10-16T09:47:37;99437.47;;;22.87;59.97
15670;BME280;18524;45.190;5.732;2022-10-16T09:52:30;99438.16;;;23.02;60.18
15670;BME280;18524;45.190;5.732;2022-10-16T09:57:21;99436.38;;;23.50;59.99
15670;BME280;18524;45.190;5.732;2022-10-16T10:02:14;99427.88;;;23.81;58.65
15670;BME280;18524;45.190;5.732;2022-10-16T10:07:05;99425.84;;;24.03;57.32
15670;BME280;18524;45.190;5.732;2022-10-16T10:11:57;99422.19;;;24.24;56.11
15670;BME280;18524;45.190;5.732;2022-10-16T10:16:48;99418.72;;;24.56;55.89
15670;BME280;18524;45.190;5.732;2022-10-16T10:21:39;99406.06;;;24.90;55.34
15670;BME280;18524;45.190;5.732;2022-10-16T10:26:31;99409.75;;;25.29;54.09
15670;BME280;18524;45.190;5.732;2022-10-16T10:36:37;99409.16;;;25.65;50.13
15670;BME280;18524;45.190;5.732;2022-10-16T10:46:35;99394.28;;;26.07;48.99
15670;BME280;18524;45.190;5.732;2022-10-16T10:51:36;99391.63;;;26.25;49.29
15670;BME280;18524;45.190;5.732;2022-10-16T10:56:51;99375.03;;;26.60;47.86
15670;BME280;18524;45.190;5.732;2022-10-16T11:02:01;99362.94;;;26.87;47.77
15670;BME280;18524;45.190;5.732;2022-10-16T11:07:00;99350.25;;;27.31;46.42
15670;BME280;18524;45.190;5.732;2022-10-16T11:12:38;99351.16;;;27.73;45.48
15670;BME280;18524;45.190;5.732;2022-10-16T11:17:36;99344.66;;;28.04;44.20
15670;BME280;18524;45.190;5.732;2022-10-16T11:33:23;99323.56;;;28.94;40.69
15670;BME280;18524;45.190;5.732;2022-10-16T11:43:34;99310.56;;;29.60;37.94
15670;BME280;18524;45.190;5.732;2022-10-16T11:53:39;99302.91;;;29.85;37.49
15670;BME280;18524;45.190;5.732;2022-10-16T11:58:39;99310.03;;;29.92;36.13
15670;BME280;18524;45.190;5.732;2022-10-16T12:04:06;99311.16;;;29.96;36.76
15670;BME280;18524;45.190;5.732;2022-10-16T12:08:54;99306.50;;;29.91;36.23
15670;BME280;18524;45.190;5.732;2022-10-16T12:13:46;99305.69;;;29.91;34.65
15670;BME280;18524;45.190;5.732;2022-10-16T12:18:40;99310.28;;;29.90;35.39
15670;BME280;18524;45.190;5.732;2022-10-16T12:23:32;99299.38;;;29.85;33.86
15670;BME280;18524;45.190;5.732;2022-10-16T12:28:27;99309.06;;;29.52;35.01
15670;BME280;18524;45.190;5.732;2022-10-16T12:33:25;99309.22;;;29.34;34.98
15670;BME280;18524;45.190;5.732;2022-10-16T12:38:24;99301.84;;;29.01;34.82
15670;BME280;18524;45.190;5.732;2022-10-16T12:43:25;99293.19;;;28.76;36.25
15670;BME280;18524;45.190;5.732;2022-10-16T12:48:21;99290.28;;;28.54;35.50
15670;BME280;18524;45.190;5.732;2022-10-16T12:53:30;99281.28;;;28.37;35.12
15670;BME280;18524;45.190;5.732;2022-10-16T13:09:05;99294.72;;;27.90;36.75
15670;BME280;18524;45.190;5.732;2022-10-16T13:19:14;99285.03;;;27.70;36.38
15670;BME280;18524;45.190;5.732;2022-10-16T13:24:19;99280.13;;;27.67;35.80
15670;BME280;18524;45.190;5.732;2022-10-16T13:29:13;99284.75;;;27.60;36.23
15670;BME280;18524;45.190;5.732;2022-10-16T13:34:05;99278.13;;;27.45;36.22
15670;BME280;18524;45.190;5.732;2022-10-16T13:39:15;99277.66;;;27.36;36.06
15670;BME280;18524;45.190;5.732;2022-10-16T13:44:35;99281.41;;;27.35;35.63
15670;BME280;18524;45.190;5.732;2022-10-16T13:49:27;99281.94;;;27.25;36.03
15670;BME280;18524;45.190;5.732;2022-10-16T13:54:17;99280.53;;;27.23;36.45
15670;BME280;18524;45.190;5.732;2022-10-16T13:59:33;99281.91;;;27.14;36.05
15670;BME280;18524;45.190;5.732;2022-10-16T14:04:24;99275.84;;;27.00;36.17
15670;BME280;18524;45.190;5.732;2022-10-16T14:09:25;99280.34;;;26.88;36.10
15670;BME280;18524;45.190;5.732;2022-10-16T14:14:20;99277.41;;;26.89;36.96
15670;BME280;18524;45.190;5.732;2022-10-16T14:19:30;99287.44;;;26.82;36.91
15670;BME280;18524;45.190;5.732;2022-10-16T14:29:20;99295.56;;;26.57;36.93
15670;BME280;18524;45.190;5.732;2022-10-16T14:39:19;99298.88;;;26.59;36.67
15670;BME280;18524;45.190;5.732;2022-10-16T14:44:11;99289.97;;;26.59;36.85
15670;BME280;18524;45.190;5.732;2022-10-16T14:53:58;99300.06;;;26.45;37.12
15670;BME280;18524;45.190;5.732;2022-10-16T14:58:52;99300.28;;;26.43;37.78
15670;BME280;18524;45.190;5.732;2022-10-16T15:03:43;99318.31;;;26.36;37.35
15670;BME280;18524;45.190;5.732;2022-10-16T15:08:34;99317.38;;;26.24;37.82
15670;BME280;18524;45.190;5.732;2022-10-16T15:13:24;99318.72;;;26.15;37.58
15670;BME280;18524;45.190;5.732;2022-10-16T15:18:14;99314.44;;;26.07;38.12
15670;BME280;18524;45.190;5.732;2022-10-16T15:23:15;99317.44;;;25.93;37.89
15670;BME280;18524;45.190;5.732;2022-10-16T15:28:06;99318.09;;;25.88;38.36
15670;BME280;18524;45.190;5.732;2022-10-16T15:32:57;99316.66;;;25.85;38.65
15670;BME280;18524;45.190;5.732;2022-10-16T15:37:48;99322.09;;;25.79;38.41
15670;BME280;18524;45.190;5.732;2022-10-16T15:42:38;99326.47;;;25.73;38.43
15670;BME280;18524;45.190;5.732;2022-10-16T15:47:29;99334.38;;;25.68;38.20
15670;BME280;18524;45.190;5.732;2022-10-16T15:52:19;99327.72;;;25.64;39.31
15670;BME280;18524;45.190;5.732;2022-10-16T15:57:10;99320.31;;;25.60;39.36
15670;BME280;18524;45.190;5.732;2022-10-16T16:02:00;99331.78;;;25.42;38.84
15670;BME280;18524;45.190;5.732;2022-10-16T16:06:50;99344.25;;;25.30;39.48
15670;BME280;18524;45.190;5.732;2022-10-16T16:11:41;99345.72;;;25.19;39.17
15670;BME280;18524;45.190;5.732;2022-10-16T16:16:32;99350.69;;;25.15;39.48
15670;BME280;18524;45.190;5.732;2022-10-16T16:21:27;99352.41;;;25.03;40.03
15670;BME280;18524;45.190;5.732;2022-10-16T16:26:29;99351.78;;;24.88;39.64
15670;BME280;18524;45.190;5.732;2022-10-16T16:31:27;99361.13;;;24.72;40.22
15670;BME280;18524;45.190;5.732;2022-10-16T16:36:18;99360.13;;;24.60;40.48
15670;BME280;18524;45.190;5.732;2022-10-16T16:41:15;99370.22;;;24.51;41.14
15670;BME280;18524;45.190;5.732;2022-10-16T16:46:06;99372.09;;;24.38;41.66
15670;BME280;18524;45.190;5.732;2022-10-16T16:51:02;99377.47;;;24.31;42.05
15670;BME280;18524;45.190;5.732;2022-10-16T16:55:53;99382.59;;;24.19;42.82
15670;BME280;18524;45.190;5.732;2022-10-16T17:00:46;99389.97;;;24.11;43.24
15670;BME280;18524;45.190;5.732;2022-10-16T17:05:37;99394.94;;;24.00;43.13
15670;BME280;18524;45.190;5.732;2022-10-16T17:10:27;99402.34;;;23.98;43.29
15670;BME280;18524;45.190;5.732;2022-10-16T17:15:17;99409.34;;;23.86;42.98
15670;BME280;18524;45.190;5.732;2022-10-16T17:20:08;99420.47;;;23.83;43.68
15670;BME280;18524;45.190;5.732;2022-10-16T17:25:00;99432.38;;;23.74;43.89
15670;BME280;18524;45.190;5.732;2022-10-16T17:29:53;99442.88;;;23.76;43.58
15670;BME280;18524;45.190;5.732;2022-10-16T17:34:43;99453.34;;;23.64;43.95
15670;BME280;18524;45.190;5.732;2022-10-16T17:39:33;99463.59;;;23.54;44.02
15670;BME280;18524;45.190;5.732;2022-10-16T17:44:24;99465.41;;;23.47;44.32
15670;BME280;18524;45.190;5.732;2022-10-16T17:49:14;99484.34;;;23.45;44.68
15670;BME280;18524;45.190;5.732;2022-10-16T17:54:06;99475.81;;;23.35;44.52
15670;BME280;18524;45.190;5.732;2022-10-16T17:58:59;99496.19;;;23.29;44.76
15670;BME280;18524;45.190;5.732;2022-10-16T18:03:53;99501.69;;;23.21;45.14
15670;BME280;18524;45.190;5.732;2022-10-16T18:08:44;99497.81;;;23.24;45.16
15670;BME280;18524;45.190;5.732;2022-10-16T18:13:34;99499.50;;;23.31;45.27
15670;BME280;18524;45.190;5.732;2022-10-16T18:18:25;99517.56;;;23.23;45.55
15670;BME280;18524;45.190;5.732;2022-10-16T18:23:15;99520.59;;;23.13;45.76
15670;BME280;18524;45.190;5.732;2022-10-16T18:28:05;99516.84;;;23.07;46.19
15670;BME280;18524;45.190;5.732;2022-10-16T18:32:56;99515.75;;;23.02;46.19
15670;BME280;18524;45.190;5.732;2022-10-16T18:37:46;99514.50;;;22.98;46.02
15670;BME280;18524;45.190;5.732;2022-10-16T18:42:36;99528.88;;;22.97;46.49
15670;BME280;18524;45.190;5.732;2022-10-16T18:47:27;99527.81;;;22.91;46.74
15670;BME280;18524;45.190;5.732;2022-10-16T18:52:18;99525.78;;;22.93;46.56
15670;BME280;18524;45.190;5.732;2022-10-16T18:57:08;99540.31;;;22.84;47.23
15670;BME280;18524;45.190;5.732;2022-10-16T19:01:58;99545.66;;;22.84;47.00
15670;BME280;18524;45.190;5.732;2022-10-16T19:06:51;99546.59;;;22.76;47.05
15670;BME280;18524;45.190;5.732;2022-10-16T19:11:43;99534.88;;;22.77;47.37
15670;BME280;18524;45.190;5.732;2022-10-16T19:16:34;99540.00;;;22.72;47.61
15670;BME280;18524;45.190;5.732;2022-10-16T19:21:26;99534.69;;;22.79;47.93
15670;BME280;18524;45.190;5.732;2022-10-16T19:26:18;99547.75;;;22.67;48.03
15670;BME280;18524;45.190;5.732;2022-10-16T19:31:11;99551.31;;;22.53;48.35
15670;BME280;18524;45.190;5.732;2022-10-16T19:36:10;99559.00;;;22.41;49.11
15670;BME280;18524;45.190;5.732;2022-10-16T19:41:16;99571.56;;;22.26;50.69
15670;BME280;18524;45.190;5.732;2022-10-16T19:46:09;99588.00;;;22.08;52.39
15670;BME280;18524;45.190;5.732;2022-10-16T19:51:01;99593.63;;;21.99;54.35
15670;BME280;18524;45.190;5.732;2022-10-16T19:55:51;99587.38;;;21.77;56.18
15670;BME280;18524;45.190;5.732;2022-10-16T20:00:42;99597.88;;;21.64;58.26
15670;BME280;18524;45.190;5.732;2022-10-16T20:05:32;99595.75;;;21.59;60.47
15670;BME280;18524;45.190;5.732;2022-10-16T20:10:22;99597.94;;;21.41;61.78
15670;BME280;18524;45.190;5.732;2022-10-16T20:15:14;99614.31;;;21.38;62.97
15670;BME280;18524;45.190;5.732;2022-10-16T20:20:05;99626.63;;;21.24;63.75
15670;BME280;18524;45.190;5.732;2022-10-16T20:24:55;99631.63;;;21.19;64.94
15670;BME280;18524;45.190;5.732;2022-10-16T20:29:46;99640.28;;;21.21;65.07
15670;BME280;18524;45.190;5.732;2022-10-16T20:34:36;99638.38;;;21.07;64.90
15670;BME280;18524;45.190;5.732;2022-10-16T20:39:27;99636.72;;;21.06;63.04
15670;BME280;18524;45.190;5.732;2022-10-16T20:44:17;99635.41;;;21.02;61.09
15670;BME280;18524;45.190;5.732;2022-10-16T20:49:08;99632.94;;;21.00;59.62
15670;BME280;18524;45.190;5.732;2022-10-16T20:54:01;99646.16;;;20.94;59.60
15670;BME280;18524;45.190;5.732;2022-10-16T20:58:51;99656.16;;;20.91;59.29
15670;BME280;18524;45.190;5.732;2022-10-16T21:03:43;99645.50;;;20.91;59.91
15670;BME280;18524;45.190;5.732;2022-10-16T21:08:35;99646.31;;;20.69;60.54
15670;BME280;18524;45.190;5.732;2022-10-16T21:13:26;99644.16;;;20.65;61.15
15670;BME280;18524;45.190;5.732;2022-10-16T21:18:16;99654.22;;;20.54;61.57
15670;BME280;18524;45.190;5.732;2022-10-16T21:23:06;99656.44;;;20.43;61.89
15670;BME280;18524;45.190;5.732;2022-10-16T21:27:57;99651.94;;;20.35;61.78
15670;BME280;18524;45.190;5.732;2022-10-16T21:32:47;99646.78;;;20.34;61.63
15670;BME280;18524;45.190;5.732;2022-10-16T21:37:37;99656.44;;;20.43;60.17
15670;BME280;18524;45.190;5.732;2022-10-16T21:42:28;99665.50;;;20.25;60.48
15670;BME280;18524;45.190;5.732;2022-10-16T21:47:18;99662.56;;;20.04;61.31
15670;BME280;18524;45.190;5.732;2022-10-16T21:52:09;99674.44;;;19.85;62.51
15670;BME280;18524;45.190;5.732;2022-10-16T21:56:59;99688.59;;;19.70;63.05
15670;BME280;18524;45.190;5.732;2022-10-16T22:01:53;99692.25;;;19.60;63.65
15670;BME280;18524;45.190;5.732;2022-10-16T22:06:44;99711.22;;;19.57;64.66
15670;BME280;18524;45.190;5.732;2022-10-16T22:11:36;99694.06;;;19.52;65.03
15670;BME280;18524;45.190;5.732;2022-10-16T22:16:26;99713.03;;;19.49;65.66
15670;BME280;18524;45.190;5.732;2022-10-16T22:21:17;99702.91;;;19.44;65.75
15670;BME280;18524;45.190;5.732;2022-10-16T22:26:10;99691.59;;;19.42;66.32
15670;BME280;18524;45.190;5.732;2022-10-16T22:31:02;99703.41;;;19.40;66.31
15670;BME280;18524;45.190;5.732;2022-10-16T22:35:53;99715.84;;;19.31;67.59
15670;BME280;18524;45.190;5.732;2022-10-16T22:40:44;99714.84;;;19.24;67.99
15670;BME280;18524;45.190;5.732;2022-10-16T22:45:34;99711.84;;;19.27;67.83
15670;BME280;18524;45.190;5.732;2022-10-16T22:50:25;99708.69;;;19.23;67.65
15670;BME280;18524;45.190;5.732;2022-10-16T22:55:16;99712.03;;;19.17;68.24
15670;BME280;18524;45.190;5.732;2022-10-16T23:00:09;99718.84;;;19.20;68.29
15670;BME280;18524;45.190;5.732;2022-10-16T23:05:01;99720.50;;;19.13;69.06
15670;BME280;18524;45.190;5.732;2022-10-16T23:09:51;99720.81;;;19.10;69.33
15670;BME280;18524;45.190;5.732;2022-10-16T23:14:43;99721.31;;;19.05;69.72
15670;BME280;18524;45.190;5.732;2022-10-16T23:19:34;99723.81;;;18.98;70.51
15670;BME280;18524;45.190;5.732;2022-10-16T23:24:24;99724.31;;;19.02;70.81
15670;BME280;18524;45.190;5.732;2022-10-16T23:29:14;99731.94;;;18.97;71.28
15670;BME280;18524;45.190;5.732;2022-10-16T23:34:05;99734.91;;;18.94;72.09
15670;BME280;18524;45.190;5.732;2022-10-16T23:38:55;99735.91;;;18.93;73.57
15670;BME280;18524;45.190;5.732;2022-10-16T23:43:46;99739.72;;;18.90;75.17
15670;BME280;18524;45.190;5.732;2022-10-16T23:48:37;99749.00;;;18.86;76.49
15670;BME280;18524;45.190;5.732;2022-10-16T23:53:27;99747.31;;;18.77;76.80
15670;BME280;18524;45.190;5.732;2022-10-16T23:58:18;99747.13;;;18.70;76.50
